sensor_id;sensor_type;location;lat;lon;timestamp;pressure;altitude;pressure_sealevel;temperature;humidity
6514;BME280;3290;47.716;9.070;2023-05-20T00:02:01;96909.22;;;15.32;88.00
6514;BME280;3290;47.716;9.070;2023-05-20T00:04:27;96904.41;;;15.29;89.27
6514;BME280;3290;47.716;9.070;2023-05-20T00:06:52;96905.03;;;15.36;88.68
6514;BME280;3290;47.716;9.070;2023-05-20T00:09:19;96898.84;;;15.47;87.43
6514;BME280;3290;47.716;9.070;2023-05-20T00:11:45;96889.81;;;15.43;87.38
6514;BME280;3290;47.716;9.070;2023-05-20T00:14:10;96891.66;;;15.42;87.29
6514;BME280;3290;47.716;9.070;2023-05-20T00:16:36;96895.72;;;15.50;85.74
6514;BME280;3290;47.716;9.070;2023-05-20T00:19:02;96891.00;;;15.52;85.88
6514;BME280;3290;47.716;9.070;2023-05-20T00:21:27;96885.16;;;15.50;86.32
6514;BME280;3290;47.716;9.070;2023-05-20T00:23:53;96888.03;;;15.69;85.14
6514;BME280;3290;47.716;9.070;2023-05-20T00:26:19;96881.19;;;15.47;86.28
6514;BME280;3290;47.716;9.070;2023-05-20T00:28:45;96879.75;;;15.40;86.00
6514;BME280;3290;47.716;9.070;2023-05-20T00:31:10;96874.59;;;15.50;84.80
6514;BME280;3290;47.716;9.070;2023-05-20T00:33:36;96870.31;;;15.44;85.74
6514;BME280;3290;47.716;9.070;2023-05-20T00:36:02;96873.13;;;15.59;85.07
6514;BME280;3290;47.716;9.070;2023-05-20T00:38:27;96870.06;;;15.66;84.66
6514;BME280;3290;47.716;9.070;2023-05-20T00:40:52;96874.34;;;15.72;83.94
6514;BME280;3290;47.716;9.070;2023-05-20T00:43:18;96876.91;;;15.67;83.71
6514;BME280;3290;47.716;9.070;2023-05-20T00:45:45;96878.03;;;15.71;84.40
6514;BME280;3290;47.716;9.070;2023-05-20T00:48:11;96880.09;;;15.69;84.10
6514;BME280;3290;47.716;9.070;2023-05-20T00:50:37;96882.88;;;15.79;83.67
6514;BME280;3290;47.716;9.070;2023-05-20T00:53:03;96875.06;;;15.89;83.01
6514;BME280;3290;47.716;9.070;2023-05-20T00:55:30;96869.88;;;15.99;83.43
6514;BME280;3290;47.716;9.070;2023-05-20T00:57:55;96872.97;;;15.91;83.28
6514;BME280;3290;47.716;9.070;2023-05-20T01:00:21;96877.16;;;15.87;83.45
6514;BME280;3290;47.716;9.070;2023-05-20T01:02:46;96876.16;;;15.93;83.31
6514;BME280;3290;47.716;9.070;2023-05-20T01:05:11;96877.19;;;15.92;82.99
6514;BME280;3290;47.716;9.070;2023-05-20T01:07:37;96875.81;;;15.85;83.95
6514;BME280;3290;47.716;9.070;2023-05-20T01:10:03;96872.03;;;16.02;82.77
6514;BME280;3290;47.716;9.070;2023-05-20T01:12:36;96872.97;;;15.91;82.95
6514;BME280;3290;47.716;9.070;2023-05-20T01:15:08;96867.22;;;15.94;83.90
6514;BME280;3290;47.716;9.070;2023-05-20T01:17:38;96867.97;;;15.68;84.05
6514;BME280;3290;47.716;9.070;2023-05-20T01:20:05;96867.66;;;15.44;85.19
6514;BME280;3290;47.716;9.070;2023-05-20T01:22:56;96861.63;;;15.48;85.71
6514;BME280;3290;47.716;9.070;2023-05-20T01:25:22;96860.22;;;15.62;84.83
6514;BME280;3290;47.716;9.070;2023-05-20T01:27:49;96853.28;;;15.35;85.61
6514;BME280;3290;47.716;9.070;2023-05-20T01:30:15;96853.84;;;15.58;84.29
6514;BME280;3290;47.716;9.070;2023-05-20T01:32:51;96851.88;;;15.70;84.04
6514;BME280;3290;47.716;9.070;2023-05-20T01:35:19;96859.22;;;15.47;84.60
6514;BME280;3290;47.716;9.070;2023-05-20T01:37:46;96856.97;;;15.55;85.18
6514;BME280;3290;47.716;9.070;2023-05-20T01:40:14;96862.00;;;15.57;85.30
6514;BME280;3290;47.716;9.070;2023-05-20T01:42:42;96857.56;;;15.62;84.80
6514;BME280;3290;47.716;9.070;2023-05-20T01:45:07;96850.41;;;15.58;84.67
6514;BME280;3290;47.716;9.070;2023-05-20T01:47:33;96856.19;;;15.55;85.09
6514;BME280;3290;47.716;9.070;2023-05-20T01:49:58;96851.00;;;15.43;85.74
6514;BME280;3290;47.716;9.070;2023-05-20T01:52:24;96848.13;;;15.45;85.94
6514;BME280;3290;47.716;9.070;2023-05-20T01:54:49;96849.91;;;15.61;84.93
6514;BME280;3290;47.716;9.070;2023-05-20T01:57:19;96842.28;;;15.64;84.80
6514;BME280;3290;47.716;9.070;2023-05-20T01:59:45;96840.31;;;15.55;85.64
6514;BME280;3290;47.716;9.070;2023-05-20T02:02:11;96840.19;;;15.66;85.53
6514;BME280;3290;47.716;9.070;2023-05-20T02:04:37;96839.16;;;15.67;85.22
6514;BME280;3290;47.716;9.070;2023-05-20T02:07:02;96841.72;;;15.62;86.14
6514;BME280;3290;47.716;9.070;2023-05-20T02:09:28;96838.06;;;15.63;86.04
6514;BME280;3290;47.716;9.070;2023-05-20T02:11:53;96841.41;;;15.59;86.70
6514;BME280;3290;47.716;9.070;2023-05-20T02:14:18;96835.97;;;15.44;86.47
6514;BME280;3290;47.716;9.070;2023-05-20T02:16:45;96840.88;;;15.35;87.62
6514;BME280;3290;47.716;9.070;2023-05-20T02:19:10;96843.91;;;15.44;86.80
6514;BME280;3290;47.716;9.070;2023-05-20T02:21:40;96836.44;;;15.62;86.60
6514;BME280;3290;47.716;9.070;2023-05-20T02:24:05;96828.94;;;15.75;86.49
6514;BME280;3290;47.716;9.070;2023-05-20T02:26:32;96838.22;;;15.78;86.06
6514;BME280;3290;47.716;9.070;2023-05-20T02:28:58;96837.53;;;15.66;88.14
6514;BME280;3290;47.716;9.070;2023-05-20T02:31:23;96839.44;;;15.70;87.78
6514;BME280;3290;47.716;9.070;2023-05-20T02:33:48;96843.09;;;15.64;88.71
6514;BME280;3290;47.716;9.070;2023-05-20T02:36:14;96829.88;;;15.64;87.80
6514;BME280;3290;47.716;9.070;2023-05-20T02:38:41;96833.44;;;15.54;88.65
6514;BME280;3290;47.716;9.070;2023-05-20T02:41:06;96825.81;;;15.57;88.83
6514;BME280;3290;47.716;9.070;2023-05-20T02:43:32;96824.56;;;15.38;89.56
6514;BME280;3290;47.716;9.070;2023-05-20T02:45:57;96818.34;;;15.49;88.99
6514;BME280;3290;47.716;9.070;2023-05-20T02:48:23;96810.84;;;15.20;90.75
6514;BME280;3290;47.716;9.070;2023-05-20T02:50:48;96816.78;;;15.11;91.55
6514;BME280;3290;47.716;9.070;2023-05-20T02:53:14;96821.28;;;15.10;91.43
6514;BME280;3290;47.716;9.070;2023-05-20T02:55:39;96829.72;;;14.91;93.54
6514;BME280;3290;47.716;9.070;2023-05-20T02:58:05;96837.00;;;14.84;94.51
6514;BME280;3290;47.716;9.070;2023-05-20T03:00:30;96836.59;;;14.76;95.97
6514;BME280;3290;47.716;9.070;2023-05-20T03:02:56;96835.00;;;14.75;95.60
6514;BME280;3290;47.716;9.070;2023-05-20T03:05:23;96828.88;;;14.53;96.91
6514;BME280;3290;47.716;9.070;2023-05-20T03:07:48;96826.47;;;14.51;97.04
6514;BME280;3290;47.716;9.070;2023-05-20T03:10:14;96822.25;;;14.34;98.79
6514;BME280;3290;47.716;9.070;2023-05-20T03:12:40;96820.25;;;14.41;98.18
6514;BME280;3290;47.716;9.070;2023-05-20T03:15:06;96820.09;;;14.15;99.85
6514;BME280;3290;47.716;9.070;2023-05-20T03:17:32;96820.31;;;14.13;99.88
6514;BME280;3290;47.716;9.070;2023-05-20T03:19:57;96832.69;;;14.13;100.00
6514;BME280;3290;47.716;9.070;2023-05-20T03:22:22;96833.50;;;14.13;100.00
6514;BME280;3290;47.716;9.070;2023-05-20T03:24:48;96837.75;;;14.14;99.71
6514;BME280;3290;47.716;9.070;2023-05-20T03:27:13;96827.44;;;14.29;98.94
6514;BME280;3290;47.716;9.070;2023-05-20T03:29:39;96824.06;;;14.17;98.75
6514;BME280;3290;47.716;9.070;2023-05-20T03:32:04;96825.13;;;13.89;100.00
6514;BME280;3290;47.716;9.070;2023-05-20T03:34:30;96828.28;;;13.74;100.00
6514;BME280;3290;47.716;9.070;2023-05-20T03:36:56;96827.31;;;13.64;100.00
6514;BME280;3290;47.716;9.070;2023-05-20T03:39:21;96830.69;;;13.76;100.00
6514;BME280;3290;47.716;9.070;2023-05-20T03:41:47;96821.84;;;13.98;100.00
6514;BME280;3290;47.716;9.070;2023-05-20T03:44:12;96814.59;;;13.61;100.00
6514;BME280;3290;47.716;9.070;2023-05-20T03:46:38;96813.91;;;13.65;100.00
6514;BME280;3290;47.716;9.070;2023-05-20T03:49:03;96819.38;;;13.75;100.00
6514;BME280;3290;47.716;9.070;2023-05-20T03:51:29;96815.78;;;13.54;100.00
6514;BME280;3290;47.716;9.070;2023-05-20T03:53:55;96817.78;;;13.63;100.00
6514;BME280;3290;47.716;9.070;2023-05-20T03:56:21;96822.69;;;13.71;100.00
6514;BME280;3290;47.716;9.070;2023-05-20T03:58:46;96825.88;;;13.73;100.00
6514;BME280;3290;47.716;9.070;2023-05-20T04:01:12;96827.72;;;13.72;100.00
6514;BME280;3290;47.716;9.070;2023-05-20T04:03:39;96820.81;;;13.83;100.00
6514;BME280;3290;47.716;9.070;2023-05-20T04:06:06;96817.19;;;14.00;100.00
6514;BME280;3290;47.716;9.070;2023-05-20T04:08:31;96816.34;;;13.99;100.00
6514;BME280;3290;47.716;9.070;2023-05-20T04:10:57;96834.34;;;13.75;100.00
6514;BME280;3290;47.716;9.070;2023-05-20T04:13:24;96822.78;;;13.76;100.00
6514;BME280;3290;47.716;9.070;2023-05-20T04:15:51;96824.34;;;13.88;100.00
6514;BME280;3290;47.716;9.070;2023-05-20T04:18:17;96830.41;;;13.89;100.00
6514;BME280;3290;47.716;9.070;2023-05-20T04:20:43;96822.94;;;13.86;100.00
6514;BME280;3290;47.716;9.070;2023-05-20T04:23:09;96830.69;;;13.76;100.00
6514;BME280;3290;47.716;9.070;2023-05-20T04:25:34;96831.78;;;13.91;100.00
6514;BME280;3290;47.716;9.070;2023-05-20T04:28:00;96832.84;;;14.06;100.00
6514;BME280;3290;47.716;9.070;2023-05-20T04:30:25;96836.88;;;13.98;100.00
6514;BME280;3290;47.716;9.070;2023-05-20T04:32:51;96839.84;;;14.01;100.00
6514;BME280;3290;47.716;9.070;2023-05-20T04:35:18;96827.75;;;13.89;100.00
6514;BME280;3290;47.716;9.070;2023-05-20T04:37:43;96829.53;;;13.99;100.00
6514;BME280;3290;47.716;9.070;2023-05-20T04:40:12;96832.00;;;13.90;100.00
6514;BME280;3290;47.716;9.070;2023-05-20T04:42:38;96822.03;;;13.92;100.00
6514;BME280;3290;47.716;9.070;2023-05-20T04:45:04;96827.34;;;13.80;100.00
6514;BME280;3290;47.716;9.070;2023-05-20T04:47:30;96827.38;;;13.97;100.00
6514;BME280;3290;47.716;9.070;2023-05-20T04:49:56;96823.69;;;13.98;100.00
6514;BME280;3290;47.716;9.070;2023-05-20T04:52:23;96824.66;;;14.19;100.00
6514;BME280;3290;47.716;9.070;2023-05-20T04:54:48;96825.13;;;14.33;100.00
6514;BME280;3290;47.716;9.070;2023-05-20T04:57:15;96814.59;;;14.16;100.00
6514;BME280;3290;47.716;9.070;2023-05-20T04:59:41;96807.00;;;14.20;100.00
6514;BME280;3290;47.716;9.070;2023-05-20T05:02:07;96800.34;;;14.17;100.00
6514;BME280;3290;47.716;9.070;2023-05-20T05:04:32;96805.72;;;14.22;100.00
6514;BME280;3290;47.716;9.070;2023-05-20T05:06:57;96805.88;;;14.32;100.00
6514;BME280;3290;47.716;9.070;2023-05-20T05:09:23;96805.78;;;14.60;100.00
6514;BME280;3290;47.716;9.070;2023-05-20T05:11:48;96811.13;;;14.65;100.00
6514;BME280;3290;47.716;9.070;2023-05-20T05:14:13;96807.06;;;14.95;100.00
6514;BME280;3290;47.716;9.070;2023-05-20T05:16:39;96813.50;;;14.82;100.00
6514;BME280;3290;47.716;9.070;2023-05-20T05:19:04;96813.25;;;14.84;100.00
6514;BME280;3290;47.716;9.070;2023-05-20T05:21:30;96823.66;;;14.74;100.00
6514;BME280;3290;47.716;9.070;2023-05-20T05:23:56;96820.50;;;14.93;100.00
6514;BME280;3290;47.716;9.070;2023-05-20T05:26:22;96810.97;;;14.92;100.00
6514;BME280;3290;47.716;9.070;2023-05-20T05:28:47;96816.03;;;14.94;100.00
6514;BME280;3290;47.716;9.070;2023-05-20T05:31:12;96816.00;;;15.10;100.00
6514;BME280;3290;47.716;9.070;2023-05-20T05:33:38;96807.91;;;15.17;100.00
6514;BME280;3290;47.716;9.070;2023-05-20T05:36:03;96815.09;;;15.21;100.00
6514;BME280;3290;47.716;9.070;2023-05-20T05:38:30;96804.00;;;15.19;100.00
6514;BME280;3290;47.716;9.070;2023-05-20T05:40:56;96803.47;;;15.22;100.00
6514;BME280;3290;47.716;9.070;2023-05-20T05:43:21;96799.81;;;15.23;100.00
6514;BME280;3290;47.716;9.070;2023-05-20T05:45:46;96797.16;;;15.44;100.00
6514;BME280;3290;47.716;9.070;2023-05-20T05:48:12;96785.28;;;15.68;100.00
6514;BME280;3290;47.716;9.070;2023-05-20T05:50:37;96788.78;;;15.78;100.00
6514;BME280;3290;47.716;9.070;2023-05-20T05:53:02;96783.63;;;15.88;100.00
6514;BME280;3290;47.716;9.070;2023-05-20T05:55:28;96784.53;;;15.72;100.00
6514;BME280;3290;47.716;9.070;2023-05-20T05:57:53;96787.34;;;15.87;100.00
6514;BME280;3290;47.716;9.070;2023-05-20T06:00:18;96789.22;;;15.92;100.00
6514;BME280;3290;47.716;9.070;2023-05-20T06:02:45;96790.91;;;15.76;100.00
6514;BME280;3290;47.716;9.070;2023-05-20T06:05:11;96798.50;;;15.94;99.82
6514;BME280;3290;47.716;9.070;2023-05-20T06:07:37;96789.59;;;16.05;100.00
6514;BME280;3290;47.716;9.070;2023-05-20T06:10:03;96797.97;;;15.97;100.00
6514;BME280;3290;47.716;9.070;2023-05-20T06:12:28;96797.34;;;16.16;98.44
6514;BME280;3290;47.716;9.070;2023-05-20T06:14:53;96800.91;;;16.27;98.60
6514;BME280;3290;47.716;9.070;2023-05-20T06:17:19;96797.81;;;16.08;99.62
6514;BME280;3290;47.716;9.070;2023-05-20T06:19:44;96803.66;;;16.10;98.57
6514;BME280;3290;47.716;9.070;2023-05-20T06:22:10;96805.22;;;16.06;98.81
6514;BME280;3290;47.716;9.070;2023-05-20T06:24:35;96801.25;;;16.35;97.45
6514;BME280;3290;47.716;9.070;2023-05-20T06:27:01;96794.53;;;16.23;97.92
6514;BME280;3290;47.716;9.070;2023-05-20T06:29:27;96785.88;;;16.32;96.35
6514;BME280;3290;47.716;9.070;2023-05-20T06:31:53;96781.31;;;16.54;95.37
6514;BME280;3290;47.716;9.070;2023-05-20T06:34:18;96770.47;;;16.55;96.19
6514;BME280;3290;47.716;9.070;2023-05-20T06:36:43;96770.19;;;16.52;96.24
6514;BME280;3290;47.716;9.070;2023-05-20T06:39:09;96769.81;;;16.39;96.52
6514;BME280;3290;47.716;9.070;2023-05-20T06:41:38;96754.38;;;16.26;96.63
6514;BME280;3290;47.716;9.070;2023-05-20T06:44:05;96762.63;;;16.34;96.04
6514;BME280;3290;47.716;9.070;2023-05-20T06:46:32;96763.78;;;16.48;96.51
6514;BME280;3290;47.716;9.070;2023-05-20T06:48:58;96767.41;;;16.37;95.84
6514;BME280;3290;47.716;9.070;2023-05-20T06:51:24;96768.31;;;16.52;95.48
6514;BME280;3290;47.716;9.070;2023-05-20T06:53:49;96761.28;;;16.73;93.58
6514;BME280;3290;47.716;9.070;2023-05-20T06:56:15;96768.50;;;16.82;94.34
6514;BME280;3290;47.716;9.070;2023-05-20T06:58:40;96765.84;;;16.77;94.18
6514;BME280;3290;47.716;9.070;2023-05-20T07:01:05;96764.34;;;16.96;92.81
6514;BME280;3290;47.716;9.070;2023-05-20T07:03:31;96771.41;;;16.81;93.62
6514;BME280;3290;47.716;9.070;2023-05-20T07:05:56;96767.50;;;16.93;92.68
6514;BME280;3290;47.716;9.070;2023-05-20T07:08:22;96761.78;;;17.16;92.11
6514;BME280;3290;47.716;9.070;2023-05-20T07:10:47;96768.03;;;16.95;93.20
6514;BME280;3290;47.716;9.070;2023-05-20T07:13:12;96768.00;;;16.90;92.83
6514;BME280;3290;47.716;9.070;2023-05-20T07:15:38;96771.00;;;17.03;92.01
6514;BME280;3290;47.716;9.070;2023-05-20T07:18:03;96766.63;;;17.28;91.22
6514;BME280;3290;47.716;9.070;2023-05-20T07:20:29;96762.84;;;17.15;91.17
6514;BME280;3290;47.716;9.070;2023-05-20T07:22:54;96759.63;;;17.08;91.52
6514;BME280;3290;47.716;9.070;2023-05-20T07:25:20;96767.94;;;17.21;91.26
6514;BME280;3290;47.716;9.070;2023-05-20T07:27:45;96760.78;;;17.22;90.70
6514;BME280;3290;47.716;9.070;2023-05-20T07:30:11;96759.72;;;17.18;90.50
6514;BME280;3290;47.716;9.070;2023-05-20T07:32:36;96758.06;;;17.12;90.88
6514;BME280;3290;47.716;9.070;2023-05-20T07:35:02;96752.38;;;17.34;90.38
6514;BME280;3290;47.716;9.070;2023-05-20T07:37:27;96752.56;;;17.23;89.29
6514;BME280;3290;47.716;9.070;2023-05-20T07:39:52;96747.59;;;17.36;88.82
6514;BME280;3290;47.716;9.070;2023-05-20T07:42:18;96756.56;;;17.30;89.68
6514;BME280;3290;47.716;9.070;2023-05-20T07:44:43;96745.97;;;17.25;89.50
6514;BME280;3290;47.716;9.070;2023-05-20T07:47:09;96744.38;;;17.24;88.82
6514;BME280;3290;47.716;9.070;2023-05-20T07:49:34;96751.78;;;17.23;88.94
6514;BME280;3290;47.716;9.070;2023-05-20T07:51:59;96742.38;;;17.66;88.14
6514;BME280;3290;47.716;9.070;2023-05-20T07:54:25;96750.19;;;17.22;89.33
6514;BME280;3290;47.716;9.070;2023-05-20T07:56:51;96750.06;;;17.63;87.46
6514;BME280;3290;47.716;9.070;2023-05-20T07:59:17;96752.09;;;17.41;88.85
6514;BME280;3290;47.716;9.070;2023-05-20T08:01:42;96739.06;;;17.24;88.77
6514;BME280;3290;47.716;9.070;2023-05-20T08:04:08;96743.41;;;17.65;87.27
6514;BME280;3290;47.716;9.070;2023-05-20T08:06:33;96743.69;;;17.68;86.54
6514;BME280;3290;47.716;9.070;2023-05-20T08:09:00;96737.38;;;17.74;86.33
6514;BME280;3290;47.716;9.070;2023-05-20T08:11:26;96739.50;;;17.87;86.08
6514;BME280;3290;47.716;9.070;2023-05-20T08:13:52;96750.88;;;17.73;87.06
6514;BME280;3290;47.716;9.070;2023-05-20T08:16:17;96746.16;;;18.09;85.56
6514;BME280;3290;47.716;9.070;2023-05-20T08:18:42;96748.81;;;18.29;83.64
6514;BME280;3290;47.716;9.070;2023-05-20T08:21:08;96746.63;;;17.77;84.96
6514;BME280;3290;47.716;9.070;2023-05-20T08:23:34;96747.75;;;18.10;84.22
6514;BME280;3290;47.716;9.070;2023-05-20T08:26:00;96747.72;;;18.05;83.27
6514;BME280;3290;47.716;9.070;2023-05-20T08:28:29;96751.22;;;18.36;83.33
6514;BME280;3290;47.716;9.070;2023-05-20T08:30:55;96756.19;;;17.98;83.25
6514;BME280;3290;47.716;9.070;2023-05-20T08:33:22;96748.50;;;17.96;82.33
6514;BME280;3290;47.716;9.070;2023-05-20T08:35:48;96746.38;;;17.98;82.34
6514;BME280;3290;47.716;9.070;2023-05-20T08:38:13;96750.13;;;18.46;80.10
6514;BME280;3290;47.716;9.070;2023-05-20T08:40:39;96745.38;;;18.24;80.78
6514;BME280;3290;47.716;9.070;2023-05-20T08:43:05;96742.72;;;18.19;80.42
6514;BME280;3290;47.716;9.070;2023-05-20T08:45:33;96744.84;;;18.12;79.95
6514;BME280;3290;47.716;9.070;2023-05-20T08:48:01;96740.31;;;18.12;79.92
6514;BME280;3290;47.716;9.070;2023-05-20T08:50:28;96748.25;;;18.37;80.01
6514;BME280;3290;47.716;9.070;2023-05-20T08:52:54;96748.25;;;18.52;78.38
6514;BME280;3290;47.716;9.070;2023-05-20T08:55:24;96735.53;;;18.49;78.18
6514;BME280;3290;47.716;9.070;2023-05-20T08:57:51;96739.06;;;19.22;75.87
6514;BME280;3290;47.716;9.070;2023-05-20T09:00:19;96732.88;;;19.84;73.20
6514;BME280;3290;47.716;9.070;2023-05-20T09:02:45;96740.34;;;19.82;72.68
6514;BME280;3290;47.716;9.070;2023-05-20T09:05:11;96736.31;;;19.37;73.63
6514;BME280;3290;47.716;9.070;2023-05-20T09:07:37;96741.94;;;19.83;71.83
6514;BME280;3290;47.716;9.070;2023-05-20T09:10:04;96735.63;;;19.69;70.93
6514;BME280;3290;47.716;9.070;2023-05-20T09:12:30;96733.09;;;19.45;72.47
6514;BME280;3290;47.716;9.070;2023-05-20T09:14:55;96732.31;;;19.92;70.52
6514;BME280;3290;47.716;9.070;2023-05-20T09:17:22;96739.00;;;19.85;71.17
6514;BME280;3290;47.716;9.070;2023-05-20T09:19:52;96741.22;;;19.63;71.71
6514;BME280;3290;47.716;9.070;2023-05-20T09:22:27;96747.28;;;19.21;73.30
6514;BME280;3290;47.716;9.070;2023-05-20T09:24:54;96746.78;;;19.14;73.06
6514;BME280;3290;47.716;9.070;2023-05-20T09:27:20;96747.84;;;19.18;74.25
6514;BME280;3290;47.716;9.070;2023-05-20T09:29:49;96741.94;;;19.35;72.90
6514;BME280;3290;47.716;9.070;2023-05-20T09:32:16;96740.94;;;19.69;72.50
6514;BME280;3290;47.716;9.070;2023-05-20T09:34:41;96738.22;;;19.79;74.21
6514;BME280;3290;47.716;9.070;2023-05-20T09:37:08;96726.63;;;19.61;72.48
6514;BME280;3290;47.716;9.070;2023-05-20T09:39:49;96723.06;;;19.85;71.55
6514;BME280;3290;47.716;9.070;2023-05-20T09:42:21;96720.59;;;19.50;72.29
6514;BME280;3290;47.716;9.070;2023-05-20T09:44:49;96726.28;;;19.29;73.38
6514;BME280;3290;47.716;9.070;2023-05-20T09:47:15;96727.97;;;18.95;75.54
6514;BME280;3290;47.716;9.070;2023-05-20T09:49:42;96725.16;;;19.40;74.04
6514;BME280;3290;47.716;9.070;2023-05-20T09:52:11;96721.69;;;19.44;72.71
6514;BME280;3290;47.716;9.070;2023-05-20T09:54:37;96725.19;;;19.83;71.19
6514;BME280;3290;47.716;9.070;2023-05-20T09:57:03;96730.75;;;19.86;72.34
6514;BME280;3290;47.716;9.070;2023-05-20T09:59:30;96730.66;;;19.96;70.61
6514;BME280;3290;47.716;9.070;2023-05-20T10:01:56;96726.09;;;20.02;68.92
6514;BME280;3290;47.716;9.070;2023-05-20T10:04:23;96730.59;;;20.06;69.93
6514;BME280;3290;47.716;9.070;2023-05-20T10:15:03;96720.84;;;19.49;73.21
6514;BME280;3290;47.716;9.070;2023-05-20T10:20:22;96721.13;;;19.47;73.71
6514;BME280;3290;47.716;9.070;2023-05-20T10:22:54;96712.28;;;19.62;72.57
6514;BME280;3290;47.716;9.070;2023-05-20T10:25:26;96716.13;;;19.41;73.00
6514;BME280;3290;47.716;9.070;2023-05-20T10:28:02;96716.53;;;19.15;73.42
6514;BME280;3290;47.716;9.070;2023-05-20T10:30:27;96721.91;;;19.96;70.85
6514;BME280;3290;47.716;9.070;2023-05-20T10:32:56;96713.75;;;19.82;69.64
6514;BME280;3290;47.716;9.070;2023-05-20T10:35:25;96717.06;;;20.64;66.83
6514;BME280;3290;47.716;9.070;2023-05-20T10:37:52;96704.31;;;21.30;65.37
6514;BME280;3290;47.716;9.070;2023-05-20T10:40:21;96707.66;;;21.59;64.41
6514;BME280;3290;47.716;9.070;2023-05-20T10:42:47;96707.94;;;20.42;67.14
6514;BME280;3290;47.716;9.070;2023-05-20T10:45:28;96708.97;;;20.46;67.73
6514;BME280;3290;47.716;9.070;2023-05-20T10:47:57;96716.56;;;20.57;67.24
6514;BME280;3290;47.716;9.070;2023-05-20T10:50:34;96709.75;;;20.18;68.27
6514;BME280;3290;47.716;9.070;2023-05-20T10:53:04;96704.78;;;20.68;69.38
6514;BME280;3290;47.716;9.070;2023-05-20T10:55:39;96701.59;;;20.89;66.14
6514;BME280;3290;47.716;9.070;2023-05-20T10:58:05;96699.88;;;21.63;63.45
6514;BME280;3290;47.716;9.070;2023-05-20T11:00:35;96697.69;;;22.51;63.52
6514;BME280;3290;47.716;9.070;2023-05-20T11:03:02;96690.56;;;21.97;61.05
6514;BME280;3290;47.716;9.070;2023-05-20T11:05:29;96689.75;;;21.23;63.59
6514;BME280;3290;47.716;9.070;2023-05-20T11:08:01;96699.63;;;20.48;66.76
6514;BME280;3290;47.716;9.070;2023-05-20T11:10:27;96696.72;;;21.42;64.00
6514;BME280;3290;47.716;9.070;2023-05-20T11:12:53;96684.13;;;21.25;63.91
6514;BME280;3290;47.716;9.070;2023-05-20T11:15:19;96683.50;;;20.63;66.36
6514;BME280;3290;47.716;9.070;2023-05-20T11:17:59;96686.63;;;20.42;66.88
6514;BME280;3290;47.716;9.070;2023-05-20T11:20:25;96693.22;;;20.49;67.12
6514;BME280;3290;47.716;9.070;2023-05-20T11:22:51;96691.97;;;20.42;66.21
6514;BME280;3290;47.716;9.070;2023-05-20T11:25:18;96686.47;;;20.61;66.08
6514;BME280;3290;47.716;9.070;2023-05-20T11:27:44;96687.16;;;20.72;65.96
6514;BME280;3290;47.716;9.070;2023-05-20T11:30:13;96689.81;;;20.44;66.32
6514;BME280;3290;47.716;9.070;2023-05-20T11:32:44;96684.34;;;20.35;67.62
6514;BME280;3290;47.716;9.070;2023-05-20T11:35:24;96687.53;;;20.32;67.07
6514;BME280;3290;47.716;9.070;2023-05-20T11:37:57;96679.84;;;20.82;66.61
6514;BME280;3290;47.716;9.070;2023-05-20T11:40:26;96671.16;;;21.18;64.87
6514;BME280;3290;47.716;9.070;2023-05-20T11:42:56;96679.41;;;21.17;65.26
6514;BME280;3290;47.716;9.070;2023-05-20T11:45:22;96676.47;;;21.60;63.24
6514;BME280;3290;47.716;9.070;2023-05-20T11:48:01;96673.13;;;21.08;64.54
6514;BME280;3290;47.716;9.070;2023-05-20T11:50:27;96671.78;;;20.87;66.10
6514;BME280;3290;47.716;9.070;2023-05-20T11:52:57;96680.91;;;21.04;66.39
6514;BME280;3290;47.716;9.070;2023-05-20T11:55:23;96670.66;;;21.34;63.91
6514;BME280;3290;47.716;9.070;2023-05-20T11:57:49;96665.97;;;21.81;61.09
6514;BME280;3290;47.716;9.070;2023-05-20T12:00:15;96660.28;;;21.88;62.69
6514;BME280;3290;47.716;9.070;2023-05-20T12:02:40;96654.72;;;22.34;61.20
6514;BME280;3290;47.716;9.070;2023-05-20T12:05:06;96654.03;;;22.10;61.56
6514;BME280;3290;47.716;9.070;2023-05-20T12:07:32;96651.66;;;21.59;61.58
6514;BME280;3290;47.716;9.070;2023-05-20T12:09:57;96654.88;;;21.74;62.64
6514;BME280;3290;47.716;9.070;2023-05-20T12:12:23;96662.13;;;22.37;60.60
6514;BME280;3290;47.716;9.070;2023-05-20T12:14:49;96660.31;;;23.04;58.57
6514;BME280;3290;47.716;9.070;2023-05-20T12:17:14;96645.47;;;22.72;58.96
6514;BME280;3290;47.716;9.070;2023-05-20T12:19:40;96645.47;;;22.72;58.52
6514;BME280;3290;47.716;9.070;2023-05-20T12:22:05;96646.44;;;22.49;60.12
6514;BME280;3290;47.716;9.070;2023-05-20T12:24:30;96638.72;;;22.74;58.99
6514;BME280;3290;47.716;9.070;2023-05-20T12:26:56;96637.75;;;22.70;59.40
6514;BME280;3290;47.716;9.070;2023-05-20T12:29:21;96636.34;;;22.86;58.71
6514;BME280;3290;47.716;9.070;2023-05-20T12:31:47;96625.84;;;23.51;56.42
6514;BME280;3290;47.716;9.070;2023-05-20T12:34:12;96625.84;;;23.16;56.56
6514;BME280;3290;47.716;9.070;2023-05-20T12:36:37;96620.53;;;23.03;57.69
6514;BME280;3290;47.716;9.070;2023-05-20T12:39:03;96619.47;;;23.39;56.92
6514;BME280;3290;47.716;9.070;2023-05-20T12:41:29;96617.31;;;23.28;55.33
6514;BME280;3290;47.716;9.070;2023-05-20T12:43:54;96607.78;;;23.35;54.94
6514;BME280;3290;47.716;9.070;2023-05-20T12:46:20;96618.47;;;23.35;55.59
6514;BME280;3290;47.716;9.070;2023-05-20T12:48:45;96611.28;;;23.22;54.67
6514;BME280;3290;47.716;9.070;2023-05-20T12:51:10;96607.84;;;23.08;56.30
6514;BME280;3290;47.716;9.070;2023-05-20T12:53:36;96603.88;;;23.19;56.22
6514;BME280;3290;47.716;9.070;2023-05-20T12:56:02;96608.00;;;23.25;56.11
6514;BME280;3290;47.716;9.070;2023-05-20T12:58:27;96600.53;;;24.14;54.05
6514;BME280;3290;47.716;9.070;2023-05-20T13:00:52;96601.84;;;22.90;55.32
6514;BME280;3290;47.716;9.070;2023-05-20T13:03:18;96587.16;;;23.92;55.32
6514;BME280;3290;47.716;9.070;2023-05-20T13:05:43;96591.03;;;24.08;54.46
6514;BME280;3290;47.716;9.070;2023-05-20T13:08:09;96584.47;;;23.49;57.21
6514;BME280;3290;47.716;9.070;2023-05-20T13:10:36;96588.81;;;23.80;55.70
6514;BME280;3290;47.716;9.070;2023-05-20T13:13:02;96587.84;;;23.06;57.92
6514;BME280;3290;47.716;9.070;2023-05-20T13:15:27;96586.09;;;23.01;57.50
6514;BME280;3290;47.716;9.070;2023-05-20T13:17:52;96582.50;;;23.06;58.52
6514;BME280;3290;47.716;9.070;2023-05-20T13:20:18;96589.66;;;22.44;59.35
6514;BME280;3290;47.716;9.070;2023-05-20T13:22:44;96584.31;;;22.70;58.78
6514;BME280;3290;47.716;9.070;2023-05-20T13:25:09;96584.22;;;22.75;58.25
6514;BME280;3290;47.716;9.070;2023-05-20T13:27:35;96593.03;;;22.49;59.11